Terminal Aerodrome Forecast
Issued by NWS Billings, MT

Home | Current Version | Previous Version | Graphics & Text | Print | Product List | Glossary On
Versions: 1 2 3 4 5 6 7 8 9 10 11 12 13 14 15 16 17 18 19 20 21 22 23 24 25 26
876
FTUS45 KBYZ 261120
TAFMLS
TAF
KMLS 261120Z 2612/2712 VRB05KT P6SM SCT100 SCT200
     FM262300 14008KT P6SM VCTS SCT070CB BKN200
     FM270700 14008KT P6SM SCT060 BKN200=

USA.gov is the U.S. government's official web portal to all federal, state and local government web resources and services.